Time;durP1;ratioP1;P1;durP2;ratioP2;P2;SDS_P1;SDS_P2;PMS_P1;PMS_P2;Temp;Humidity;BMP_temperature;BMP_pressure;BME280_temperature;BME280_humidity;BME280_pressure;Samples;Min_cycle;Max_cycle;Signal;HPM_P1;HPM_P2
2023/07/12 03:03:01;;;;;;;1.10;0.82;;;30.70;41.80;;;;;;4822425;29;46308;-62
2023/07/12 03:05:27;;;;;;;1.08;0.95;;;30.70;41.90;;;;;;4854103;29;46179;-62
2023/07/12 03:07:53;;;;;;;0.70;0.70;;;30.70;41.90;;;;;;4879347;29;44955;-61
2023/07/12 03:10:18;;;;;;;0.60;0.60;;;30.70;41.80;;;;;;4874170;29;44754;-59
2023/07/12 03:12:44;;;;;;;0.70;0.70;;;30.70;41.90;;;;;;4874800;29;45423;-62
2023/07/12 03:15:10;;;;;;;0.80;0.80;;;30.70;41.90;;;;;;4874013;29;45965;-58
2023/07/12 03:17:35;;;;;;;0.60;0.60;;;30.70;41.80;;;;;;4856457;29;45209;-63
2023/07/12 03:20:01;;;;;;;1.10;1.00;;;30.70;41.80;;;;;;4870363;29;47078;-59
2023/07/12 03:22:26;;;;;;;0.80;0.80;;;30.70;41.90;;;;;;4873821;29;46355;-61
2023/07/12 03:24:52;;;;;;;0.77;0.70;;;30.70;41.90;;;;;;4878077;29;45380;-62
2023/07/12 03:27:17;;;;;;;0.73;0.70;;;30.70;41.90;;;;;;4874856;29;45259;-61
2023/07/12 03:29:43;;;;;;;1.20;0.73;;;30.70;41.90;;;;;;4876170;29;45290;-62
2023/07/12 03:32:08;;;;;;;0.82;0.82;;;30.70;41.90;;;;;;4846568;29;45369;-59
2023/07/12 03:34:34;;;;;;;1.00;0.90;;;30.70;41.90;;;;;;4869832;29;45950;-61
2023/07/12 03:37:00;;;;;;;0.70;0.70;;;30.70;41.90;;;;;;4876024;29;44929;-62
2023/07/12 03:39:26;;;;;;;1.00;0.88;;;30.60;41.90;;;;;;4879001;29;45524;-62
2023/07/12 03:41:52;;;;;;;0.80;0.80;;;30.70;42.00;;;;;;4869221;29;45579;-62
2023/07/12 03:44:17;;;;;;;1.10;1.00;;;30.70;42.00;;;;;;4877923;29;46116;-62
2023/07/12 03:46:43;;;;;;;0.70;0.70;;;30.70;42.00;;;;;;4862331;29;45391;-62
2023/07/12 03:49:08;;;;;;;0.90;0.90;;;30.60;41.90;;;;;;4875674;29;45445;-60
2023/07/12 03:51:34;;;;;;;0.80;0.80;;;30.70;42.00;;;;;;4869245;29;46413;-61
2023/07/12 03:53:59;;;;;;;0.95;0.95;;;30.70;42.00;;;;;;4882418;29;46302;-62
2023/07/12 03:56:25;;;;;;;0.70;0.70;;;30.70;42.00;;;;;;4864460;29;45578;-62
2023/07/12 03:58:50;;;;;;;0.75;0.75;;;30.70;42.00;;;;;;4882769;29;45522;-62
2023/07/12 04:01:17;;;;;;;0.90;0.90;;;30.70;42.00;;;;;;4864715;29;45823;-62
2023/07/12 04:03:43;;;;;;;0.80;0.80;;;30.70;42.00;;;;;;4878980;29;45372;-62
2023/07/12 04:06:09;;;;;;;1.05;0.82;;;30.70;42.00;;;;;;4856778;29;45339;-60
2023/07/12 04:08:35;;;;;;;0.80;0.80;;;30.70;42.00;;;;;;4840811;29;45056;-61
2023/07/12 04:11:01;;;;;;;0.73;0.73;;;30.70;42.10;;;;;;4874577;29;44947;-62
2023/07/12 04:13:26;;;;;;;1.27;0.75;;;30.60;42.00;;;;;;4871579;29;46110;-62
2023/07/12 04:15:56;;;;;;;0.90;0.90;;;30.70;42.00;;;;;;4871759;29;44747;-61
2023/07/12 04:18:23;;;;;;;0.80;0.80;;;30.70;42.00;;;;;;4870719;29;45221;-61
2023/07/12 04:20:48;;;;;;;0.80;0.80;;;30.70;42.10;;;;;;4872731;29;45851;-62
2023/07/12 04:23:14;;;;;;;0.75;0.75;;;30.70;42.10;;;;;;4875135;29;45297;-62
2023/07/12 04:25:39;;;;;;;0.85;0.70;;;30.70;42.10;;;;;;4876089;29;45355;-61
2023/07/12 04:28:05;;;;;;;0.60;0.60;;;30.60;42.00;;;;;;4874628;29;45353;-58
2023/07/12 04:30:30;;;;;;;1.25;1.00;;;30.70;42.10;;;;;;4859831;29;45632;-63
2023/07/12 04:32:56;;;;;;;0.80;0.80;;;30.70;42.10;;;;;;4875873;29;46687;-62
2023/07/12 04:35:22;;;;;;;0.65;0.65;;;30.70;42.10;;;;;;4873639;29;45425;-61
2023/07/12 04:37:48;;;;;;;0.73;0.73;;;30.70;42.10;;;;;;4857569;29;45364;-62
2023/07/12 04:40:14;;;;;;;0.90;0.70;;;30.70;42.20;;;;;;4870982;29;44803;-58
2023/07/12 04:42:40;;;;;;;0.50;0.50;;;30.70;42.10;;;;;;4876515;29;45881;-62
2023/07/12 04:45:06;;;;;;;1.42;0.85;;;30.70;42.20;;;;;;4871194;29;45236;-58
2023/07/12 04:47:32;;;;;;;1.02;0.70;;;30.70;42.20;;;;;;4845237;29;44695;-61
2023/07/12 04:49:58;;;;;;;0.88;0.88;;;30.70;42.20;;;;;;4875728;29;45076;-59
2023/07/12 04:52:23;;;;;;;1.08;1.00;;;30.70;42.10;;;;;;4872498;29;45138;-61
2023/07/12 04:54:49;;;;;;;0.80;0.70;;;30.70;42.10;;;;;;4878928;29;45569;-62
2023/07/12 04:57:14;;;;;;;0.80;0.80;;;30.70;42.20;;;;;;4865490;29;45196;-61
2023/07/12 04:59:40;;;;;;;0.70;0.70;;;30.70;42.20;;;;;;4877396;29;45265;-61
2023/07/12 05:02:06;;;;;;;0.93;0.82;;;30.70;42.20;;;;;;4860170;29;45662;-61
2023/07/12 05:04:31;;;;;;;0.73;0.70;;;30.70;42.20;;;;;;4872307;29;45241;-61
2023/07/12 05:06:57;;;;;;;0.60;0.60;;;30.70;42.20;;;;;;4851321;29;45678;-62
2023/07/12 05:09:23;;;;;;;0.70;0.70;;;30.70;42.20;;;;;;4876644;29;44945;-62
2023/07/12 05:11:48;;;;;;;0.50;0.50;;;30.70;42.20;;;;;;4870671;29;47390;-61
2023/07/12 05:14:14;;;;;;;0.77;0.77;;;30.70;42.20;;;;;;4877200;29;45485;-61
2023/07/12 05:16:39;;;;;;;1.48;0.80;;;30.70;42.20;;;;;;4871494;29;45249;-61
2023/07/12 05:19:05;;;;;;;0.80;0.65;;;30.70;42.10;;;;;;4875087;29;44787;-60
2023/07/12 05:21:31;;;;;;;0.60;0.60;;;30.70;42.20;;;;;;4851523;29;45317;-62
2023/07/12 05:23:56;;;;;;;0.80;0.80;;;30.70;42.10;;;;;;4875515;29;44938;-61
2023/07/12 05:26:22;;;;;;;0.60;0.60;;;30.70;42.10;;;;;;4872143;29;45072;-61
2023/07/12 05:28:48;;;;;;;0.90;0.90;;;30.70;42.10;;;;;;4872803;29;45267;-61
2023/07/12 05:31:13;;;;;;;0.93;0.90;;;30.80;42.20;;;;;;4864367;29;45442;-59
2023/07/12 05:33:41;;;;;;;0.88;0.80;;;30.70;42.10;;;;;;4857338;29;44999;-61
2023/07/12 05:36:07;;;;;;;0.80;0.80;;;30.80;42.10;;;;;;4865603;29;46033;-61
2023/07/12 05:38:32;;;;;;;0.50;0.50;;;30.80;42.00;;;;;;4872513;29;45407;-61
2023/07/12 05:40:58;;;;;;;0.73;0.73;;;30.90;42.00;;;;;;4870981;29;46842;-60
2023/07/12 05:43:24;;;;;;;0.82;0.82;;;31.00;41.90;;;;;;4878014;29;45207;-62
2023/07/12 05:45:50;;;;;;;0.90;0.90;;;31.20;41.60;;;;;;4863971;29;44982;-61
2023/07/12 05:48:16;;;;;;;1.02;1.02;;;31.40;41.30;;;;;;4859247;29;45061;-60
2023/07/12 05:50:41;;;;;;;1.15;1.05;;;31.30;41.30;;;;;;4841463;29;44951;-62
2023/07/12 05:53:08;;;;;;;0.93;0.85;;;31.20;41.40;;;;;;4874219;29;45718;-62
2023/07/12 05:55:34;;;;;;;0.80;0.80;;;31.10;41.50;;;;;;4849465;29;45012;-61
2023/07/12 05:57:59;;;;;;;0.68;0.68;;;31.10;41.60;;;;;;4876526;29;45272;-62
2023/07/12 06:00:25;;;;;;;0.70;0.70;;;31.00;41.60;;;;;;4869185;29;45975;-61
2023/07/12 06:02:50;;;;;;;0.75;0.75;;;31.00;41.70;;;;;;4874384;29;45213;-60
2023/07/12 06:05:18;;;;;;;0.60;0.60;;;31.00;41.70;;;;;;4869168;29;46604;-60
2023/07/12 06:07:44;;;;;;;0.90;0.80;;;31.00;41.80;;;;;;4871838;29;46273;-61
2023/07/12 06:10:10;;;;;;;0.70;0.70;;;31.00;41.80;;;;;;4875481;29;45316;-61
2023/07/12 06:12:35;;;;;;;0.70;0.70;;;31.00;41.80;;;;;;4876884;29;45516;-61
2023/07/12 06:15:01;;;;;;;0.73;0.73;;;31.00;41.80;;;;;;4874718;29;45643;-61
2023/07/12 06:17:26;;;;;;;0.88;0.82;;;31.00;41.80;;;;;;4844785;29;45477;-62
2023/07/12 06:19:52;;;;;;;0.82;0.70;;;31.00;41.80;;;;;;4873823;29;47058;-60
2023/07/12 06:22:18;;;;;;;0.80;0.80;;;31.00;41.80;;;;;;4869236;29;44831;-60
2023/07/12 06:24:43;;;;;;;0.80;0.75;;;31.00;41.90;;;;;;4874913;29;45375;-62
2023/07/12 06:27:09;;;;;;;0.98;0.93;;;31.00;41.80;;;;;;4869841;29;46027;-62
2023/07/12 06:29:34;;;;;;;0.77;0.70;;;31.00;41.80;;;;;;4875483;29;45851;-60
2023/07/12 06:32:00;;;;;;;0.80;0.80;;;31.00;41.80;;;;;;4845782;29;44672;-60
2023/07/12 06:34:25;;;;;;;0.70;0.70;;;31.00;41.70;;;;;;4876221;29;45250;-62
2023/07/12 06:36:51;;;;;;;0.82;0.82;;;31.10;41.70;;;;;;4870429;29;45336;-62
2023/07/12 06:39:17;;;;;;;0.90;0.90;;;31.10;41.70;;;;;;4869450;29;46022;-60
2023/07/12 06:41:42;;;;;;;1.02;0.93;;;31.20;41.60;;;;;;4856044;29;45828;-60
2023/07/12 06:44:08;;;;;;;0.75;0.57;;;31.20;41.50;;;;;;4876416;29;45487;-61
2023/07/12 06:46:33;;;;;;;0.80;0.80;;;31.20;41.40;;;;;;4862321;29;45567;-61
2023/07/12 06:48:59;;;;;;;0.80;0.75;;;31.30;41.40;;;;;;4875807;29;47292;-62
2023/07/12 06:51:24;;;;;;;0.70;0.70;;;31.30;41.30;;;;;;4873230;29;45426;-62
2023/07/12 06:53:50;;;;;;;1.17;0.80;;;31.40;41.40;;;;;;4875517;29;45262;-61
2023/07/12 06:56:15;;;;;;;0.70;0.70;;;31.40;41.30;;;;;;4858768;29;45400;-62
2023/07/12 06:58:41;;;;;;;0.63;0.63;;;31.40;41.20;;;;;;4874619;29;45930;-61
2023/07/12 07:01:08;;;;;;;0.70;0.70;;;31.40;41.30;;;;;;4862005;28;45478;-62
2023/07/12 07:03:33;;;;;;;0.88;0.63;;;31.40;41.30;;;;;;4879420;29;45565;-60
2023/07/12 07:05:59;;;;;;;1.13;1.02;;;31.40;41.30;;;;;;4870529;29;45261;-61
2023/07/12 07:08:25;;;;;;;0.60;0.60;;;31.40;41.30;;;;;;4870261;29;46311;-63
2023/07/12 07:10:51;;;;;;;0.70;0.70;;;31.40;41.30;;;;;;4873273;29;45254;-61
2023/07/12 07:13:16;;;;;;;0.90;0.75;;;31.40;41.40;;;;;;4878445;29;45603;-62
2023/07/12 07:15:45;;;;;;;0.70;0.70;;;31.40;41.30;;;;;;4861991;29;45415;-61
2023/07/12 07:18:10;;;;;;;0.50;0.50;;;31.40;41.30;;;;;;4873929;29;46207;-61
2023/07/12 07:20:36;;;;;;;0.55;0.55;;;31.40;41.30;;;;;;4870618;29;45542;-61
2023/07/12 07:23:01;;;;;;;0.73;0.73;;;31.40;41.30;;;;;;4860271;29;45703;-62
2023/07/12 07:25:28;;;;;;;0.90;0.90;;;31.40;41.30;;;;;;4872606;29;44920;-59
2023/07/12 07:27:54;;;;;;;1.42;0.70;;;31.40;41.30;;;;;;4875807;29;46213;-60
2023/07/12 07:30:19;;;;;;;0.80;0.65;;;31.40;41.30;;;;;;4863756;29;45988;-60
2023/07/12 07:32:45;;;;;;;1.00;0.70;;;31.50;41.30;;;;;;4846066;29;44689;-62
2023/07/12 07:35:11;;;;;;;0.70;0.70;;;31.50;41.30;;;;;;4873742;29;45179;-61
2023/07/12 07:37:37;;;;;;;0.75;0.75;;;31.50;41.30;;;;;;4853577;29;47395;-61
2023/07/12 07:40:03;;;;;;;0.90;0.90;;;31.50;41.30;;;;;;4857863;29;45523;-58
2023/07/12 07:42:29;;;;;;;0.50;0.45;;;31.50;41.20;;;;;;4858021;29;45514;-61
2023/07/12 07:44:55;;;;;;;0.55;0.55;;;31.60;41.30;;;;;;4871465;29;45209;-62
2023/07/12 07:47:20;;;;;;;0.40;0.40;;;31.50;41.30;;;;;;4866247;29;46160;-61
2023/07/12 07:49:46;;;;;;;0.70;0.70;;;31.50;41.20;;;;;;4873396;29;45358;-62
2023/07/12 07:52:11;;;;;;;0.77;0.77;;;31.50;41.20;;;;;;4874167;29;45426;-62
2023/07/12 07:54:39;;;;;;;2.35;1.05;;;31.50;41.20;;;;;;4877989;29;44822;-62
2023/07/12 07:57:05;;;;;;;0.82;0.82;;;31.60;41.30;;;;;;4867943;29;46279;-61
2023/07/12 07:59:31;;;;;;;0.88;0.73;;;31.60;41.30;;;;;;4874369;29;45525;-62
2023/07/12 08:01:58;;;;;;;0.70;0.70;;;31.60;41.30;;;;;;4867867;29;44759;-62
2023/07/12 08:04:23;;;;;;;0.70;0.70;;;31.60;41.40;;;;;;4874206;29;45253;-60
2023/07/12 08:06:50;;;;;;;0.80;0.80;;;31.60;41.20;;;;;;4850411;29;47010;-61
2023/07/12 08:09:15;;;;;;;0.70;0.70;;;31.60;41.30;;;;;;4874385;29;45077;-63
2023/07/12 08:11:41;;;;;;;0.90;0.70;;;31.60;41.20;;;;;;4874183;29;45806;-62
2023/07/12 08:14:07;;;;;;;0.95;0.70;;;31.60;41.20;;;;;;4880392;29;44739;-61
2023/07/12 08:16:35;;;;;;;0.60;0.60;;;31.60;41.20;;;;;;4866011;29;45563;-61
2023/07/12 08:19:02;;;;;;;0.73;0.70;;;31.60;41.20;;;;;;4871180;29;44849;-60
2023/07/12 08:21:28;;;;;;;0.82;0.80;;;31.70;41.20;;;;;;4869208;29;45157;-61
2023/07/12 08:23:54;;;;;;;0.63;0.63;;;31.70;41.20;;;;;;4871742;29;45464;-62
2023/07/12 08:26:19;;;;;;;0.70;0.70;;;31.70;41.20;;;;;;4874542;29;47190;-61
2023/07/12 08:28:45;;;;;;;0.73;0.73;;;31.70;41.20;;;;;;4873392;29;45799;-61
2023/07/12 08:31:11;;;;;;;0.68;0.68;;;31.70;41.20;;;;;;4865493;29;45623;-61
2023/07/12 08:33:37;;;;;;;0.90;0.80;;;31.70;41.20;;;;;;4877265;29;46195;-60
2023/07/12 08:36:03;;;;;;;0.77;0.77;;;31.70;41.30;;;;;;4872288;29;45457;-61
2023/07/12 08:38:31;;;;;;;0.73;0.70;;;31.70;41.20;;;;;;4858803;29;44991;-62
2023/07/12 08:40:57;;;;;;;0.88;0.63;;;31.70;41.20;;;;;;4876462;29;45384;-62
2023/07/12 08:43:27;;;;;;;0.85;0.85;;;31.70;41.20;;;;;;4862918;29;47143;-61
2023/07/12 08:45:53;;;;;;;0.90;0.90;;;31.70;41.20;;;;;;4855389;29;46436;-62
2023/07/12 08:48:21;;;;;;;0.70;0.60;;;31.70;41.30;;;;;;4858462;29;45554;-61
2023/07/12 08:50:47;;;;;;;0.77;0.77;;;31.70;41.30;;;;;;4857472;29;44991;-62
2023/07/12 08:53:20;;;;;;;0.80;0.80;;;31.70;41.30;;;;;;4875381;29;45480;-61
2023/07/12 08:55:46;;;;;;;0.70;0.65;;;31.70;41.20;;;;;;4858539;29;47269;-61
2023/07/12 08:58:21;;;;;;;0.70;0.68;;;31.70;41.30;;;;;;4882086;29;45371;-61
2023/07/12 09:00:51;;;;;;;0.70;0.70;;;31.70;41.30;;;;;;4837469;29;45426;-62
2023/07/12 09:03:17;;;;;;;0.70;0.70;;;31.70;41.30;;;;;;4877282;29;45511;-62
2023/07/12 09:05:42;;;;;;;1.00;1.00;;;31.70;41.30;;;;;;4874507;29;46380;-61
2023/07/12 09:08:08;;;;;;;0.85;0.70;;;31.80;41.30;;;;;;4862430;29;45918;-62
2023/07/12 09:10:42;;;;;;;0.80;0.70;;;31.70;41.20;;;;;;4874530;29;45387;-61
2023/07/12 09:13:10;;;;;;;0.70;0.70;;;31.80;41.20;;;;;;4880393;29;45716;-61
2023/07/12 09:15:49;;;;;;;0.68;0.68;;;31.80;41.90;;;;;;4869448;29;46868;-62
2023/07/12 09:18:31;;;;;;;0.60;0.60;;;31.80;41.20;;;;;;4857180;29;45480;-61
2023/07/12 09:20:59;;;;;;;0.60;0.60;;;31.80;41.20;;;;;;4873563;29;45408;-61
2023/07/12 09:23:25;;;;;;;0.77;0.70;;;31.80;41.20;;;;;;4873182;29;45221;-62
2023/07/12 09:25:54;;;;;;;0.80;0.68;;;31.90;41.20;;;;;;4875448;29;45645;-61
2023/07/12 09:28:19;;;;;;;1.40;0.70;;;31.90;41.20;;;;;;4879765;29;44615;-62
2023/07/12 09:30:45;;;;;;;0.80;0.70;;;31.90;41.20;;;;;;4868440;29;45210;-60
2023/07/12 09:33:21;;;;;;;0.80;0.80;;;31.80;41.20;;;;;;4870394;29;45374;-61
2023/07/12 09:35:47;;;;;;;0.77;0.77;;;31.90;41.20;;;;;;4826514;29;45940;-61
2023/07/12 09:38:23;;;;;;;0.70;0.70;;;31.90;41.20;;;;;;4881103;29;44860;-62
2023/07/12 09:40:50;;;;;;;0.70;0.70;;;31.90;41.10;;;;;;4868308;29;45619;-61
2023/07/12 09:43:17;;;;;;;0.68;0.60;;;31.90;41.20;;;;;;4847024;29;45576;-61
2023/07/12 09:46:04;;;;;;;0.98;0.60;;;31.90;41.10;;;;;;4872512;29;46160;-62
2023/07/12 09:48:42;;;;;;;0.88;0.73;;;31.90;41.20;;;;;;4863571;29;45300;-59
2023/07/12 09:51:33;;;;;;;0.52;0.52;;;31.90;41.10;;;;;;4872252;29;45167;-60
2023/07/12 09:54:14;;;;;;;0.90;0.75;;;32.00;41.10;;;;;;4873219;29;45590;-61
2023/07/12 09:56:49;;;;;;;0.70;0.70;;;31.90;41.10;;;;;;4857294;29;46081;-62
2023/07/12 09:59:53;;;;;;;0.80;0.70;;;32.00;41.10;;;;;;4880612;29;44574;-62
2023/07/12 10:02:35;;;;;;;0.68;0.68;;;32.00;41.10;;;;;;4852991;29;44743;-62
2023/07/12 10:05:07;;;;;;;0.70;0.65;;;32.00;41.10;;;;;;4876251;29;45447;-61
2023/07/12 10:07:42;;;;;;;0.60;0.60;;;32.00;41.10;;;;;;4879492;29;46010;-62
2023/07/12 10:10:38;;;;;;;0.68;0.65;;;32.10;41.10;;;;;;4880193;29;45515;-61
2023/07/12 10:13:27;;;;;;;0.70;0.70;;;32.10;41.10;;;;;;4868020;29;46055;-61
2023/07/12 10:15:52;;;;;;;0.70;0.68;;;32.10;41.10;;;;;;4852744;29;45823;-62
2023/07/12 10:18:21;;;;;;;0.70;0.70;;;32.10;41.10;;;;;;4863032;29;46157;-62
2023/07/12 10:20:47;;;;;;;1.05;0.90;;;32.10;41.10;;;;;;4858113;29;45306;-62
2023/07/12 10:23:13;;;;;;;0.70;0.70;;;32.10;41.10;;;;;;4847165;29;45211;-62
2023/07/12 10:25:44;;;;;;;0.60;0.60;;;32.20;41.10;;;;;;4867074;29;45539;-60
2023/07/12 10:28:22;;;;;;;0.60;0.60;;;32.10;41.00;;;;;;4845633;29;45227;-61
2023/07/12 10:30:48;;;;;;;1.77;0.63;;;32.20;41.10;;;;;;4852303;29;45342;-61
2023/07/12 10:33:32;;;;;;;1.23;1.00;;;32.20;41.10;;;;;;4859348;29;45478;-60
2023/07/12 10:36:11;;;;;;;0.50;0.50;;;32.20;41.00;;;;;;4840152;29;45361;-61
2023/07/12 10:38:37;;;;;;;0.70;0.70;;;32.20;41.00;;;;;;4844494;29;46120;-62
2023/07/12 10:41:08;;;;;;;0.52;0.52;;;32.20;41.00;;;;;;4872776;29;45215;-60
2023/07/12 10:43:45;;;;;;;1.95;0.90;;;32.20;41.00;;;;;;4846459;29;46065;-60
2023/07/12 10:46:30;;;;;;;0.73;0.70;;;32.20;41.00;;;;;;4849148;29;45261;-62
2023/07/12 10:48:55;;;;;;;1.77;0.70;;;32.20;41.00;;;;;;4875223;29;46916;-62
2023/07/12 10:51:21;;;;;;;0.55;0.55;;;32.20;41.10;;;;;;4839898;29;45989;-61
2023/07/12 10:53:51;;;;;;;0.93;0.82;;;32.20;41.10;;;;;;4874267;29;45171;-62
2023/07/12 10:56:18;;;;;;;2.72;0.70;;;32.20;41.10;;;;;;4867073;29;45627;-60
2023/07/12 10:58:57;;;;;;;1.02;0.90;;;32.20;41.10;;;;;;4875184;29;46277;-61
2023/07/12 11:01:41;;;;;;;0.68;0.68;;;32.00;40.10;;;;;;4852362;29;45294;-62
2023/07/12 11:04:08;;;;;;;0.98;0.93;;;31.60;39.00;;;;;;4877227;29;46500;-60
2023/07/12 11:06:33;;;;;;;0.77;0.77;;;31.30;39.70;;;;;;4868678;29;45201;-61
2023/07/12 11:08:59;;;;;;;1.00;1.00;;;31.00;39.10;;;;;;4860497;29;46064;-62
2023/07/12 11:11:35;;;;;;;1.08;0.98;;;30.90;38.90;;;;;;4874394;29;45140;-62
2023/07/12 11:14:15;;;;;;;0.80;0.80;;;30.70;38.30;;;;;;4877346;29;45268;-59
2023/07/12 11:16:45;;;;;;;1.00;0.90;;;30.60;37.20;;;;;;4865707;29;44985;-61
2023/07/12 11:19:42;;;;;;;1.08;0.70;;;30.40;36.90;;;;;;4873162;29;46168;-60
2023/07/12 11:22:24;;;;;;;0.90;0.90;;;30.30;35.40;;;;;;4836891;29;45280;-61
2023/07/12 11:24:58;;;;;;;0.73;0.73;;;30.10;34.70;;;;;;4874025;29;45316;-60
2023/07/12 11:27:26;;;;;;;0.90;0.80;;;29.90;35.60;;;;;;4870987;29;45508;-60
2023/07/12 11:29:53;;;;;;;1.00;0.90;;;29.80;35.20;;;;;;4860429;29;45889;-61
2023/07/12 11:32:26;;;;;;;1.15;0.70;;;29.60;34.80;;;;;;4849446;29;45787;-61
2023/07/12 11:34:59;;;;;;;0.75;0.75;;;29.50;34.30;;;;;;4860775;29;45146;-61
2023/07/12 11:37:30;;;;;;;0.88;0.80;;;29.40;33.60;;;;;;4855006;29;44771;-61
2023/07/12 11:39:55;;;;;;;0.80;0.80;;;29.30;33.30;;;;;;4859620;29;45577;-61
2023/07/12 11:42:26;;;;;;;0.80;0.80;;;29.30;33.60;;;;;;4871246;29;45351;-61
2023/07/12 11:45:01;;;;;;;0.80;0.80;;;29.20;32.80;;;;;;4876709;29;45369;-62
2023/07/12 11:47:27;;;;;;;1.10;1.00;;;29.20;31.60;;;;;;4866466;29;45361;-61
2023/07/12 11:49:55;;;;;;;1.67;0.73;;;29.10;32.50;;;;;;4874660;29;46204;-61
2023/07/12 11:52:21;;;;;;;0.90;0.70;;;29.00;31.80;;;;;;4871363;29;45415;-61
2023/07/12 11:54:47;;;;;;;0.95;0.80;;;28.80;31.80;;;;;;4869899;29;45438;-61
2023/07/12 11:57:13;;;;;;;0.98;0.80;;;28.80;31.90;;;;;;4869307;29;46256;-62
2023/07/12 11:59:41;;;;;;;0.50;0.50;;;28.70;31.70;;;;;;4855552;29;46077;-61
2023/07/12 12:02:15;;;;;;;1.02;0.73;;;28.70;32.80;;;;;;4864241;29;45465;-61
2023/07/12 12:04:41;;;;;;;0.70;0.70;;;28.70;32.40;;;;;;4872761;29;46018;-62
2023/07/12 12:07:19;;;;;;;1.08;0.88;;;28.70;33.10;;;;;;4872590;29;45430;-62
2023/07/12 12:09:45;;;;;;;1.58;0.90;;;28.70;33.50;;;;;;4863209;29;47255;-61
2023/07/12 12:12:16;;;;;;;1.15;0.82;;;28.70;34.20;;;;;;4852085;29;45988;-60
2023/07/12 12:14:41;;;;;;;0.95;0.80;;;28.70;34.60;;;;;;4855897;29;45351;-61
2023/07/12 12:17:16;;;;;;;1.02;0.80;;;28.70;35.00;;;;;;4866618;29;45321;-61
2023/07/12 12:19:47;;;;;;;0.85;0.85;;;28.70;35.50;;;;;;4860561;29;45929;-61
2023/07/12 12:22:25;;;;;;;0.85;0.77;;;28.70;35.90;;;;;;4872870;29;45370;-62
2023/07/12 12:24:54;;;;;;;0.80;0.80;;;28.70;36.40;;;;;;4879995;29;45591;-60
2023/07/12 12:27:21;;;;;;;0.77;0.73;;;28.70;36.50;;;;;;4874402;29;45924;-61
2023/07/12 12:29:50;;;;;;;0.73;0.70;;;28.70;36.80;;;;;;4854402;29;45936;-61
2023/07/12 12:32:16;;;;;;;1.10;1.00;;;28.60;37.00;;;;;;4836921;29;45067;-60
2023/07/12 12:34:51;;;;;;;1.27;0.93;;;28.60;37.30;;;;;;4875601;29;46203;-62
2023/07/12 12:37:21;;;;;;;0.85;0.85;;;28.60;37.80;;;;;;4874979;29;45426;-61
2023/07/12 12:40:00;;;;;;;0.85;0.73;;;28.50;38.10;;;;;;4839830;29;46524;-61
2023/07/12 12:42:27;;;;;;;0.82;0.82;;;28.50;38.50;;;;;;4837518;29;46261;-62
2023/07/12 12:44:54;;;;;;;0.80;0.80;;;28.40;38.70;;;;;;4877107;29;45089;-61
2023/07/12 12:47:30;;;;;;;0.82;0.75;;;28.30;38.90;;;;;;4843469;29;45182;-61
2023/07/12 12:49:56;;;;;;;1.17;1.00;;;28.20;39.20;;;;;;4871883;29;46089;-61
2023/07/12 12:52:35;;;;;;;1.05;0.88;;;28.20;39.40;;;;;;4869729;29;45667;-61
2023/07/12 12:55:05;;;;;;;1.30;1.02;;;28.10;39.70;;;;;;4878481;29;45267;-61
2023/07/12 12:57:33;;;;;;;1.10;0.80;;;28.00;39.80;;;;;;4855634;29;44936;-61
2023/07/12 12:59:59;;;;;;;1.20;1.00;;;28.00;39.90;;;;;;4873855;29;45590;-60
2023/07/12 13:02:24;;;;;;;1.02;0.73;;;28.00;40.10;;;;;;4859805;29;45562;-61
2023/07/12 13:04:52;;;;;;;2.28;1.00;;;27.90;40.20;;;;;;4874627;29;45089;-61
2023/07/12 13:07:29;;;;;;;0.90;0.80;;;27.90;40.30;;;;;;4850289;29;45369;-56
2023/07/12 13:09:54;;;;;;;0.70;0.70;;;27.90;40.70;;;;;;4839675;29;46343;-52
2023/07/12 13:12:24;;;;;;;0.65;0.65;;;28.10;40.40;;;;;;4869145;29;46172;-54
2023/07/12 13:14:50;;;;;;;0.95;0.90;;;28.10;40.30;;;;;;4875682;29;44704;-55
2023/07/12 13:17:23;;;;;;;0.85;0.85;;;28.20;40.20;;;;;;4862481;29;45065;-56
2023/07/12 13:19:50;;;;;;;0.80;0.80;;;28.20;40.00;;;;;;4870259;29;45999;-52
2023/07/12 13:22:18;;;;;;;0.82;0.80;;;28.20;39.90;;;;;;4866524;29;45350;-55
2023/07/12 13:24:44;;;;;;;1.10;1.00;;;28.30;39.90;;;;;;4874545;29;45557;-55
2023/07/12 13:27:21;;;;;;;1.25;0.80;;;28.30;39.70;;;;;;4861157;29;45320;-54
2023/07/12 13:29:48;;;;;;;0.90;0.90;;;28.40;39.80;;;;;;4873943;29;46127;-54
2023/07/12 13:32:13;;;;;;;1.35;1.00;;;28.40;39.60;;;;;;4861879;29;45199;-55
2023/07/12 13:34:39;;;;;;;0.77;0.77;;;28.40;39.70;;;;;;4855028;29;45233;-55
2023/07/12 13:37:05;;;;;;;0.70;0.70;;;28.40;39.60;;;;;;4869922;29;46195;-55
2023/07/12 13:39:31;;;;;;;0.68;0.68;;;28.50;39.70;;;;;;4857807;29;45275;-56
2023/07/12 13:41:56;;;;;;;0.80;0.80;;;28.50;39.70;;;;;;4853360;29;45794;-54
2023/07/12 13:44:22;;;;;;;0.60;0.60;;;28.50;39.80;;;;;;4871354;29;45375;-55
2023/07/12 13:46:48;;;;;;;0.68;0.68;;;28.40;39.70;;;;;;4864445;29;45629;-56
2023/07/12 13:49:14;;;;;;;0.80;0.80;;;28.50;39.80;;;;;;4868932;29;47549;-55
2023/07/12 13:51:40;;;;;;;0.65;0.65;;;28.50;39.80;;;;;;4845326;29;46150;-56
2023/07/12 13:54:06;;;;;;;0.70;0.70;;;28.50;39.90;;;;;;4852884;29;45319;-54
2023/07/12 13:56:32;;;;;;;0.82;0.82;;;28.50;39.90;;;;;;4867317;29;45160;-54
2023/07/12 13:58:57;;;;;;;1.08;0.90;;;28.50;40.00;;;;;;4874449;29;45322;-55
2023/07/12 14:01:25;;;;;;;0.73;0.70;;;28.50;40.00;;;;;;4866929;29;45399;-56
2023/07/12 14:03:51;;;;;;;0.70;0.70;;;28.40;40.00;;;;;;4855463;29;45522;-55
2023/07/12 14:06:16;;;;;;;0.65;0.65;;;28.40;40.00;;;;;;4870935;29;45143;-54
2023/07/12 14:08:42;;;;;;;1.08;0.50;;;28.50;40.10;;;;;;4869373;29;45996;-54
2023/07/12 14:11:25;;;;;;;1.00;0.90;;;28.50;40.10;;;;;;4868195;29;45211;-57
2023/07/12 14:13:51;;;;;;;0.82;0.82;;;28.50;40.20;;;;;;4856962;29;45275;-56
2023/07/12 14:16:17;;;;;;;0.60;0.60;;;28.50;39.90;;;;;;4861898;29;45222;-56
2023/07/12 14:18:43;;;;;;;0.68;0.65;;;28.40;39.00;;;;;;4868067;29;46024;-57
2023/07/12 14:21:13;;;;;;;0.60;0.60;;;28.40;38.40;;;;;;4865410;29;44967;-56
2023/07/12 14:23:40;;;;;;;0.90;0.88;;;28.30;37.50;;;;;;4841888;29;45287;-56
2023/07/12 14:26:06;;;;;;;0.77;0.77;;;28.20;37.40;;;;;;4853362;29;45587;-56
2023/07/12 14:28:32;;;;;;;0.75;0.60;;;28.10;37.00;;;;;;4871065;29;45996;-55
2023/07/12 14:30:58;;;;;;;0.95;0.70;;;28.10;36.30;;;;;;4858689;29;45576;-56
2023/07/12 14:33:34;;;;;;;0.63;0.40;;;28.00;35.60;;;;;;4872551;29;45616;-54
2023/07/12 14:36:00;;;;;;;0.60;0.60;;;28.00;35.20;;;;;;4869425;29;45677;-53
2023/07/12 14:38:26;;;;;;;0.50;0.50;;;27.90;34.80;;;;;;4872268;29;45588;-54
2023/07/12 14:40:52;;;;;;;1.15;0.68;;;27.80;34.40;;;;;;4862365;29;45506;-55
2023/07/12 14:43:17;;;;;;;0.93;0.60;;;27.80;34.00;;;;;;4874328;29;44901;-56
2023/07/12 14:45:43;;;;;;;0.75;0.75;;;27.70;33.60;;;;;;4863565;29;45323;-55
2023/07/12 14:48:11;;;;;;;1.35;0.65;;;27.60;33.30;;;;;;4869883;29;45198;-54
2023/07/12 14:50:38;;;;;;;0.70;0.70;;;27.60;32.70;;;;;;4869062;29;45322;-55
2023/07/12 14:53:03;;;;;;;0.73;0.57;;;27.50;32.50;;;;;;4855563;29;45293;-53
2023/07/12 14:55:29;;;;;;;0.60;0.60;;;27.40;32.50;;;;;;4843928;29;45755;-53
2023/07/12 14:57:54;;;;;;;0.60;0.60;;;27.40;32.40;;;;;;4867631;29;45223;-56
2023/07/12 15:00:20;;;;;;;0.80;0.70;;;27.40;32.10;;;;;;4865568;29;45502;-56
2023/07/12 15:02:49;;;;;;;0.77;0.63;;;27.30;32.00;;;;;;4868213;29;45224;-55
2023/07/12 15:05:15;;;;;;;1.23;1.00;;;27.30;31.70;;;;;;4849660;29;44984;-54
2023/07/12 15:07:40;;;;;;;0.80;0.80;;;27.20;31.60;;;;;;4872641;29;45018;-53
2023/07/12 15:10:07;;;;;;;0.70;0.70;;;27.20;31.40;;;;;;4860316;29;45406;-55
2023/07/12 15:12:38;;;;;;;0.65;0.65;;;27.20;31.40;;;;;;4871546;29;45238;-55
2023/07/12 15:15:12;;;;;;;0.50;0.50;;;27.10;31.80;;;;;;4871201;29;44986;-56
2023/07/12 15:17:38;;;;;;;0.70;0.70;;;27.10;31.10;;;;;;4868116;29;46298;-56
2023/07/12 15:20:08;;;;;;;0.90;0.80;;;27.10;30.90;;;;;;4861876;29;45371;-60
2023/07/12 15:22:37;;;;;;;1.33;0.85;;;27.00;30.70;;;;;;4872129;29;48594;-54
2023/07/12 15:25:07;;;;;;;1.23;0.90;;;27.00;30.70;;;;;;4835222;29;45274;-56
2023/07/12 15:27:33;;;;;;;0.65;0.65;;;26.90;30.60;;;;;;4855571;29;46582;-56
2023/07/12 15:29:59;;;;;;;0.55;0.55;;;27.00;30.90;;;;;;4870462;29;45109;-58
2023/07/12 15:32:24;;;;;;;0.60;0.60;;;27.10;30.90;;;;;;4856667;29;45185;-61
2023/07/12 15:34:50;;;;;;;0.50;0.50;;;27.10;30.90;;;;;;4846695;29;45841;-60
2023/07/12 15:37:17;;;;;;;2.13;0.40;;;27.20;31.00;;;;;;4866040;29;45480;-60
2023/07/12 15:39:44;;;;;;;0.55;0.45;;;27.30;31.00;;;;;;4867733;29;45264;-60
2023/07/12 15:42:18;;;;;;;0.50;0.50;;;27.40;31.10;;;;;;4863269;29;44634;-59
2023/07/12 15:44:44;;;;;;;4.55;0.60;;;27.40;30.80;;;;;;4868964;29;45966;-60
2023/07/12 15:47:11;;;;;;;0.85;0.70;;;27.50;31.20;;;;;;4852038;29;45885;-58
2023/07/12 15:49:37;;;;;;;0.60;0.60;;;27.50;31.30;;;;;;4867718;29;45203;-61
2023/07/12 15:52:02;;;;;;;0.93;0.70;;;27.60;31.50;;;;;;4858625;29;45470;-59
2023/07/12 15:54:30;;;;;;;0.85;0.70;;;27.70;31.60;;;;;;4866253;29;45798;-60